createdAt,value
2022-12-24T00:02:21.545Z,100220.59
2022-12-24T00:04:47.932Z,100231.66
2022-12-24T00:07:14.379Z,100230.44
2022-12-24T00:09:40.724Z,100242.72
2022-12-24T00:12:07.318Z,100244.56
2022-12-24T00:14:33.680Z,100240.91
2022-12-24T00:17:00.087Z,100248.19
2022-12-24T00:19:26.541Z,100254.16
2022-12-24T00:21:52.859Z,100243.44
2022-12-24T00:24:19.212Z,100245.03
2022-12-24T00:26:45.562Z,100243.56
2022-12-24T00:29:12.138Z,100246.75
2022-12-24T00:31:38.460Z,100251.59
2022-12-24T00:34:04.823Z,100254.28
2022-12-24T00:36:31.248Z,100253.91
2022-12-24T00:38:57.603Z,100259.94
2022-12-24T00:41:28.890Z,100265.16
2022-12-24T00:44:05.537Z,100270.50
2022-12-24T00:46:33.459Z,100270.81
2022-12-24T00:49:00.699Z,100267.56
2022-12-24T00:51:27.649Z,100269.25
2022-12-24T00:53:54.270Z,100265.81
2022-12-24T00:56:20.967Z,100278.38
2022-12-24T00:58:47.426Z,100281.19
2022-12-24T01:01:14.262Z,100294.66
2022-12-24T01:03:40.882Z,100297.94
2022-12-24T01:06:13.530Z,100291.25
2022-12-24T01:08:40.492Z,100298.78
2022-12-24T01:11:09.039Z,100302.19
2022-12-24T01:13:36.165Z,100314.72
2022-12-24T01:16:03.802Z,100311.44
2022-12-24T01:18:30.211Z,100305.81
2022-12-24T01:20:58.255Z,100303.88
2022-12-24T01:23:25.037Z,100328.09
2022-12-24T01:25:51.482Z,100322.03
2022-12-24T01:28:18.354Z,100329.31
2022-12-24T01:30:44.772Z,100339.38
2022-12-24T01:33:11.148Z,100342.28
2022-12-24T01:35:42.687Z,100350.31
2022-12-24T01:38:11.723Z,100353.72
2022-12-24T01:41:00.480Z,100355.16
2022-12-24T01:43:30.327Z,100358.59
2022-12-24T01:46:01.264Z,100357.84
2022-12-24T01:48:45.195Z,100359.66
2022-12-24T01:51:35.675Z,100369.63
2022-12-24T01:54:11.501Z,100376.06
2022-12-24T01:56:45.196Z,100365.47
2022-12-24T01:59:14.598Z,100379.69
2022-12-24T02:01:41.161Z,100375.66
2022-12-24T02:04:34.297Z,100385.50
2022-12-24T02:07:00.967Z,100384.53
2022-12-24T02:09:28.211Z,100382.69
2022-12-24T02:11:54.644Z,100397.16
2022-12-24T02:14:21.625Z,100395.56
2022-12-24T02:17:02.572Z,100396.31
2022-12-24T02:19:34.664Z,100400.31
2022-12-24T02:22:08.061Z,100405.00
2022-12-24T02:24:46.740Z,100403.75
2022-12-24T02:27:28.064Z,100410.31
2022-12-24T02:30:01.712Z,100411.59
2022-12-24T02:32:31.073Z,100419.63
2022-12-24T02:35:19.942Z,100426.16
2022-12-24T02:37:55.092Z,100431.16
2022-12-24T02:40:25.213Z,100437.06
2022-12-24T02:42:58.293Z,100425.00
2022-12-24T02:45:31.117Z,100433.53
2022-12-24T02:47:58.797Z,100454.69
2022-12-24T02:50:25.850Z,100451.19
2022-12-24T02:52:52.747Z,100447.75
2022-12-24T02:55:28.425Z,100464.03
2022-12-24T02:58:09.973Z,100450.88
2022-12-24T03:00:56.163Z,100454.31
2022-12-24T03:03:49.674Z,100459.44
2022-12-24T03:06:28.118Z,100455.44
2022-12-24T03:09:01.887Z,100459.94
2022-12-24T03:11:28.281Z,100466.47
2022-12-24T03:13:57.549Z,100456.44
2022-12-24T03:16:27.267Z,100460.94
2022-12-24T03:18:55.988Z,100460.94
2022-12-24T03:21:28.437Z,100460.94
2022-12-24T03:23:56.026Z,100468.94
2022-12-24T03:26:24.806Z,100468.06
2022-12-24T03:28:51.170Z,100469.78
2022-12-24T03:31:18.625Z,100460.56
2022-12-24T03:33:45.415Z,100483.44
2022-12-24T03:36:12.122Z,100485.38
2022-12-24T03:38:38.491Z,100486.13
2022-12-24T03:41:05.157Z,100487.84
2022-12-24T03:43:31.674Z,100486.97
2022-12-24T03:45:58.150Z,100483.59
2022-12-24T03:48:29.126Z,100481.53
2022-12-24T03:50:58.987Z,100481.25
2022-12-24T03:53:25.351Z,100488.94
2022-12-24T03:55:51.672Z,100477.59
2022-12-24T03:58:18.023Z,100497.16
2022-12-24T04:00:44.400Z,100497.56
2022-12-24T04:03:10.848Z,100489.44
2022-12-24T04:05:37.258Z,100495.66
2022-12-24T04:08:03.626Z,100503.22
2022-12-24T04:10:29.941Z,100495.50
2022-12-24T04:12:56.282Z,100494.78
2022-12-24T04:15:22.619Z,100495.75
2022-12-24T04:17:48.953Z,100493.31
2022-12-24T04:20:15.353Z,100502.81
2022-12-24T04:22:42.155Z,100501.84
2022-12-24T04:25:09.069Z,100504.28
2022-12-24T04:27:35.488Z,100505.59
2022-12-24T04:30:01.929Z,100508.69
2022-12-24T04:32:28.553Z,100508.88
2022-12-24T04:34:55.037Z,100515.13
2022-12-24T04:37:21.409Z,100517.22
2022-12-24T04:39:47.784Z,100519.66
2022-12-24T04:42:14.279Z,100517.97
2022-12-24T04:44:40.608Z,100524.28
2022-12-24T04:47:06.963Z,100527.06
2022-12-24T04:49:33.274Z,100531.34
2022-12-24T04:51:59.618Z,100525.78
2022-12-24T04:54:25.993Z,100530.59
2022-12-24T04:56:52.696Z,100524.50
2022-12-24T04:59:19.046Z,100530.28
2022-12-24T05:01:45.610Z,100528.69
2022-12-24T05:04:12.143Z,100530.63
2022-12-24T05:06:38.508Z,100534.06
2022-12-24T05:09:04.858Z,100537.78
2022-12-24T05:11:31.498Z,100546.66
2022-12-24T05:13:57.908Z,100535.22
2022-12-24T05:16:24.708Z,100531.59
2022-12-24T05:18:51.553Z,100540.38
2022-12-24T05:21:21.619Z,100541.13
2022-12-24T05:24:24.033Z,100540.91
2022-12-24T05:26:56.045Z,100539.41
2022-12-24T05:29:23.056Z,100533.63
2022-12-24T05:31:49.625Z,100534.78
2022-12-24T05:34:16.735Z,100533.94
2022-12-24T05:36:44.099Z,100540.97
2022-12-24T05:39:16.190Z,100547.19
2022-12-24T05:41:43.229Z,100539.19
2022-12-24T05:44:09.631Z,100544.63
2022-12-24T05:46:36.025Z,100551.78
2022-12-24T05:49:02.535Z,100547.28
2022-12-24T05:51:28.895Z,100554.16
2022-12-24T05:53:55.327Z,100559.91
2022-12-24T05:56:23.687Z,100558.00
2022-12-24T05:58:51.966Z,100559.59
2022-12-24T06:01:19.766Z,100555.84
2022-12-24T06:03:46.329Z,100564.84
2022-12-24T06:06:15.668Z,100566.31
2022-12-24T06:08:42.196Z,100568.03
2022-12-24T06:11:11.854Z,100564.72
2022-12-24T06:13:39.267Z,100564.84
2022-12-24T06:16:07.254Z,100570.38
2022-12-24T06:18:35.902Z,100571.47
2022-12-24T06:21:02.949Z,100579.59
2022-12-24T06:23:31.364Z,100594.03
2022-12-24T06:26:00.712Z,100601.97
2022-12-24T06:28:28.491Z,100607.00
2022-12-24T06:31:02.133Z,100602.47
2022-12-24T06:33:29.485Z,100608.91
2022-12-24T06:35:55.847Z,100614.25
2022-12-24T06:38:22.211Z,100616.72
2022-12-24T06:40:48.751Z,100607.50
2022-12-24T06:43:16.073Z,100602.91
2022-12-24T06:45:47.084Z,100608.38
2022-12-24T06:48:14.776Z,100613.47
2022-12-24T06:50:42.334Z,100617.00
2022-12-24T06:53:09.535Z,100631.88
2022-12-24T06:55:36.003Z,100632.63
2022-12-24T06:58:03.141Z,100624.28
2022-12-24T07:00:29.524Z,100632.75
2022-12-24T07:02:55.943Z,100637.38
2022-12-24T07:05:22.389Z,100644.50
2022-12-24T07:07:48.727Z,100634.78
2022-12-24T07:10:17.031Z,100643.34
2022-12-24T07:12:43.983Z,100638.00
2022-12-24T07:15:11.213Z,100645.03
2022-12-24T07:17:37.681Z,100653.81
2022-12-24T07:20:05.627Z,100651.38
2022-12-24T07:22:32.023Z,100657.78
2022-12-24T07:24:58.340Z,100654.78
2022-12-24T07:27:24.728Z,100659.06
2022-12-24T07:29:51.063Z,100664.19
2022-12-24T07:32:17.511Z,100666.34
2022-12-24T07:34:43.909Z,100663.75
2022-12-24T07:37:10.280Z,100673.53
2022-12-24T07:39:36.615Z,100678.34
2022-12-24T07:42:05.472Z,100675.84
2022-12-24T07:44:31.832Z,100673.09
2022-12-24T07:46:58.279Z,100690.22
2022-12-24T07:49:24.799Z,100681.44
2022-12-24T07:51:51.180Z,100681.22
2022-12-24T07:54:17.532Z,100680.50
2022-12-24T07:56:43.899Z,100688.50
2022-12-24T07:59:14.033Z,100683.03
2022-12-24T08:01:41.111Z,100684.63
2022-12-24T08:04:07.662Z,100708.94
2022-12-24T08:06:34.113Z,100709.59
2022-12-24T08:09:00.521Z,100717.06
2022-12-24T08:11:26.873Z,100718.03
2022-12-24T08:13:53.226Z,100724.75
2022-12-24T08:16:19.623Z,100728.50
2022-12-24T08:18:45.997Z,100737.28
2022-12-24T08:21:12.344Z,100730.78
2022-12-24T08:23:38.873Z,100734.41
2022-12-24T08:26:09.892Z,100739.03
2022-12-24T08:28:36.752Z,100740.06
2022-12-24T08:31:03.242Z,100744.88
2022-12-24T08:33:29.772Z,100758.25
2022-12-24T08:35:57.155Z,100759.75
2022-12-24T08:38:24.174Z,100764.34
2022-12-24T08:40:53.434Z,100766.81
2022-12-24T08:43:19.991Z,100763.41
2022-12-24T08:45:49.109Z,100765.19
2022-12-24T08:48:15.624Z,100768.84
2022-12-24T08:50:42.864Z,100774.50
2022-12-24T08:53:10.632Z,100776.78
2022-12-24T08:55:37.382Z,100780.00
2022-12-24T08:58:04.017Z,100784.59
2022-12-24T09:00:30.415Z,100785.13
2022-12-24T09:02:57.575Z,100798.28
2022-12-24T09:05:24.007Z,100790.88
2022-12-24T09:07:50.379Z,100791.00
2022-12-24T09:10:17.088Z,100793.91
2022-12-24T09:12:43.456Z,100798.06
2022-12-24T09:15:10.291Z,100803.72
2022-12-24T09:17:37.054Z,100809.72
2022-12-24T09:20:06.629Z,100798.91
2022-12-24T09:22:37.879Z,100802.34
2022-12-24T09:25:06.155Z,100810.28
2022-12-24T09:27:32.572Z,100808.22
2022-12-24T09:29:58.920Z,100825.72
2022-12-24T09:32:25.284Z,100827.41
2022-12-24T09:34:51.621Z,100837.81
2022-12-24T09:37:18.052Z,100840.38
2022-12-24T09:39:44.414Z,100837.41
2022-12-24T09:42:49.942Z,100850.25
2022-12-24T09:45:41.703Z,100844.91
2022-12-24T09:48:18.184Z,100852.63
2022-12-24T09:50:53.134Z,100854.31
2022-12-24T09:53:27.034Z,100861.94
2022-12-24T09:56:04.034Z,100865.66
2022-12-24T09:58:41.908Z,100870.06
2022-12-24T10:01:12.570Z,100863.31
2022-12-24T10:03:39.288Z,100873.44
2022-12-24T10:06:25.005Z,100886.72
2022-12-24T10:09:13.904Z,100879.47
2022-12-24T10:11:50.269Z,100891.00
2022-12-24T10:14:44.252Z,100877.84
2022-12-24T10:17:45.431Z,100879.16
2022-12-24T10:20:34.705Z,100877.78
2022-12-24T10:23:11.906Z,100885.22
2022-12-24T10:25:47.826Z,100882.41
2022-12-24T10:28:23.745Z,100894.31
2022-12-24T10:30:55.222Z,100887.44
2022-12-24T10:33:46.827Z,100899.91
2022-12-24T10:36:18.645Z,100893.47
2022-12-24T10:38:45.955Z,100893.16
2022-12-24T10:41:14.487Z,100896.03
2022-12-24T10:43:42.948Z,100890.16
2022-12-24T10:46:23.086Z,100881.38
2022-12-24T10:48:59.480Z,100879.88
2022-12-24T10:51:40.549Z,100871.41
2022-12-24T10:54:14.290Z,100875.25
2022-12-24T10:56:44.585Z,100878.38
2022-12-24T10:59:32.025Z,100872.06
2022-12-24T11:02:00.185Z,100874.41
2022-12-24T11:04:32.396Z,100878.78
2022-12-24T11:07:01.861Z,100880.31
2022-12-24T11:09:34.570Z,100881.06
2022-12-24T11:12:09.362Z,100891.66
2022-12-24T11:14:39.932Z,100889.72
2022-12-24T11:17:06.727Z,100882.97
2022-12-24T11:19:41.242Z,100890.25
2022-12-24T11:22:18.882Z,100902.91
2022-12-24T11:24:50.019Z,100881.38
2022-12-24T11:27:25.517Z,100885.22
2022-12-24T11:29:51.891Z,100875.47
2022-12-24T11:32:22.755Z,100870.34
2022-12-24T11:34:49.682Z,100883.44
2022-12-24T11:37:25.149Z,100877.94
2022-12-24T11:39:54.460Z,100879.66
2022-12-24T11:42:39.075Z,100885.88
2022-12-24T11:45:17.305Z,100889.09
2022-12-24T11:47:43.737Z,100896.06
2022-12-24T11:50:27.247Z,100898.38
2022-12-24T11:53:02.705Z,100889.94
2022-12-24T11:55:52.804Z,100888.13
2022-12-24T11:58:40.425Z,100890.78
2022-12-24T12:01:24.596Z,100885.88
2022-12-24T12:04:15.553Z,100892.63
2022-12-24T12:06:47.785Z,100891.78
2022-12-24T12:09:24.516Z,100888.22
2022-12-24T12:11:56.797Z,100887.38
2022-12-24T12:14:32.026Z,100903.22
2022-12-24T12:17:07.565Z,100897.97
2022-12-24T12:19:45.313Z,100895.00
2022-12-24T12:22:24.320Z,100903.03
2022-12-24T12:24:53.403Z,100903.97
2022-12-24T12:27:47.771Z,100901.72
2022-12-24T12:30:21.013Z,100905.25
2022-12-24T12:32:56.894Z,100915.13
2022-12-24T12:35:33.831Z,100909.00
2022-12-24T12:38:12.145Z,100917.66
2022-12-24T12:41:00.207Z,100919.50
2022-12-24T12:43:32.611Z,100922.41
2022-12-24T12:46:17.166Z,100924.09
2022-12-24T12:48:58.600Z,100927.75
2022-12-24T12:51:40.893Z,100928.81
2022-12-24T12:54:30.644Z,100930.66
2022-12-24T12:57:05.836Z,100938.06
2022-12-24T12:59:43.231Z,100942.56
2022-12-24T13:02:34.506Z,100940.75
2022-12-24T13:05:23.584Z,100926.19
2022-12-24T13:08:11.529Z,100932.69
2022-12-24T13:10:54.010Z,100936.69
2022-12-24T13:13:44.564Z,100947.94
2022-12-24T13:16:35.733Z,100964.00
2022-12-24T13:19:47.190Z,100951.44
2022-12-24T13:22:17.463Z,100955.22
2022-12-24T13:24:52.878Z,100961.00
2022-12-24T13:27:24.827Z,100952.41
2022-12-24T13:29:52.256Z,100962.25
2022-12-24T13:32:21.428Z,100973.66
2022-12-24T13:34:53.360Z,100966.69
2022-12-24T13:37:32.164Z,100970.97
2022-12-24T13:40:02.798Z,100963.69
2022-12-24T13:43:12.243Z,100970.00
2022-12-24T13:45:38.729Z,100963.25
2022-12-24T13:48:11.311Z,100977.38
2022-12-24T13:50:45.297Z,100980.16
2022-12-24T13:53:28.229Z,100980.16
2022-12-24T13:55:56.223Z,100975.66
2022-12-24T13:58:24.778Z,100981.31
2022-12-24T14:01:04.951Z,100986.13
2022-12-24T14:03:35.914Z,100978.19
2022-12-24T14:06:06.730Z,100984.31
2022-12-24T14:08:39.440Z,100980.38
2022-12-24T14:11:18.103Z,100990.13
2022-12-24T14:13:44.433Z,100987.53
2022-12-24T14:16:28.475Z,100997.41
2022-12-24T14:19:12.158Z,100991.59
2022-12-24T14:21:44.024Z,100997.91
2022-12-24T14:24:20.578Z,101000.38
2022-12-24T14:26:51.314Z,101008.09
2022-12-24T14:29:41.476Z,101002.81
2022-12-24T14:32:15.359Z,101012.59
2022-12-24T14:34:42.394Z,101014.25
2022-12-24T14:37:11.559Z,101021.31
2022-12-24T14:39:43.948Z,101022.28
2022-12-24T14:42:31.877Z,101034.47
2022-12-24T14:45:17.187Z,101038.06
2022-12-24T14:48:06.359Z,101035.31
2022-12-24T14:50:43.571Z,101036.75
2022-12-24T14:53:31.452Z,101032.25
2022-12-24T14:55:57.909Z,101046.78
2022-12-24T14:58:27.727Z,101046.03
2022-12-24T15:00:57.860Z,101048.56
2022-12-24T15:03:27.519Z,101041.47
2022-12-24T15:06:02.575Z,101042.03
2022-12-24T15:08:43.848Z,101046.34
2022-12-24T15:11:16.636Z,101051.81
2022-12-24T15:13:46.845Z,101055.84
2022-12-24T15:16:19.194Z,101057.41
2022-12-24T15:18:58.606Z,101059.56
2022-12-24T15:21:37.674Z,101066.44
2022-12-24T15:24:04.522Z,101079.25
2022-12-24T15:26:36.457Z,101078.38
2022-12-24T15:29:16.381Z,101071.78
2022-12-24T15:31:43.435Z,101079.38
2022-12-24T15:34:30.007Z,101082.22
2022-12-24T15:37:24.401Z,101081.34
2022-12-24T15:40:02.141Z,101083.47
2022-12-24T15:42:28.761Z,101102.53
2022-12-24T15:45:01.610Z,101102.94
2022-12-24T15:47:45.593Z,101110.88
2022-12-24T15:50:19.315Z,101106.19
2022-12-24T15:52:47.143Z,101109.34
2022-12-24T15:55:38.376Z,101110.75
2022-12-24T15:58:23.518Z,101107.59
2022-12-24T16:01:04.728Z,101101.13
2022-12-24T16:03:32.414Z,101113.31
2022-12-24T16:06:04.710Z,101118.38
2022-12-24T16:08:41.510Z,101117.97
2022-12-24T16:11:23.554Z,101112.91
2022-12-24T16:14:14.062Z,101114.56
2022-12-24T16:16:46.239Z,101122.38
2022-12-24T16:19:24.972Z,101124.91
2022-12-24T16:21:57.626Z,101119.28
2022-12-24T16:24:27.281Z,101111.25
2022-12-24T16:26:54.840Z,101117.06
2022-12-24T16:29:22.346Z,101119.91
2022-12-24T16:31:53.224Z,101116.75
2022-12-24T16:34:25.405Z,101126.25
2022-12-24T16:36:51.956Z,101132.13
2022-12-24T16:39:38.584Z,101121.88
2022-12-24T16:42:23.437Z,101121.44
2022-12-24T16:44:52.993Z,101127.31
2022-12-24T16:47:32.387Z,101136.94
2022-12-24T16:50:02.990Z,101140.97
2022-12-24T16:52:33.448Z,101143.53
2022-12-24T16:55:01.007Z,101145.63
2022-12-24T16:57:27.953Z,101149.59
2022-12-24T16:59:54.587Z,101149.38
2022-12-24T17:02:23.477Z,101152.44
2022-12-24T17:04:50.244Z,101156.25
2022-12-24T17:07:18.955Z,101162.78
2022-12-24T17:09:45.356Z,101164.72
2022-12-24T17:12:11.932Z,101163.03
2022-12-24T17:14:39.411Z,101160.88
2022-12-24T17:17:06.106Z,101160.19
2022-12-24T17:19:32.504Z,101161.28
2022-12-24T17:21:58.904Z,101170.25
2022-12-24T17:24:25.254Z,101160.78
2022-12-24T17:26:51.660Z,101158.13
2022-12-24T17:29:18.026Z,101160.06
2022-12-24T17:31:44.535Z,101161.97
2022-12-24T17:34:10.970Z,101166.69
2022-12-24T17:36:37.342Z,101161.59
2022-12-24T17:39:03.840Z,101158.94
2022-12-24T17:41:30.261Z,101162.56
2022-12-24T17:43:56.628Z,101161.78
2022-12-24T17:46:23.648Z,101167.13
2022-12-24T17:48:51.244Z,101163.75
2022-12-24T17:51:20.783Z,101161.06
2022-12-24T17:53:47.666Z,101154.81
2022-12-24T17:56:15.422Z,101169.00
2022-12-24T17:58:43.517Z,101163.22
2022-12-24T18:01:12.746Z,101164.59
2022-12-24T18:03:39.481Z,101169.00
2022-12-24T18:06:08.177Z,101176.03
2022-12-24T18:08:35.229Z,101182.38
2022-12-24T18:11:11.832Z,101182.47
2022-12-24T18:13:39.000Z,101185.97
2022-12-24T18:16:22.223Z,101192.34
2022-12-24T18:18:49.408Z,101188.81
2022-12-24T18:21:17.532Z,101177.47
2022-12-24T18:23:46.467Z,101183.91
2022-12-24T18:26:15.288Z,101177.34
2022-12-24T18:28:42.755Z,101169.72
2022-12-24T18:31:13.364Z,101178.03
2022-12-24T18:33:40.782Z,101176.06
2022-12-24T18:36:07.845Z,101172.31
2022-12-24T18:38:35.246Z,101184.16
2022-12-24T18:41:06.416Z,101185.03
2022-12-24T18:43:33.148Z,101179.78
2022-12-24T18:45:59.649Z,101178.13
2022-12-24T18:48:26.083Z,101179.53
2022-12-24T18:50:57.513Z,101188.44
2022-12-24T18:53:24.883Z,101175.59
2022-12-24T18:55:51.824Z,101179.81
2022-12-24T18:58:18.336Z,101173.78
2022-12-24T19:00:44.876Z,101172.13
2022-12-24T19:03:14.666Z,101171.50
2022-12-24T19:05:42.652Z,101172.56
2022-12-24T19:08:37.700Z,101173.75
2022-12-24T19:10:55.721Z,101173.91
2022-12-24T19:13:22.067Z,101171.25
2022-12-24T19:15:48.491Z,101173.13
2022-12-24T19:18:14.861Z,101175.72
2022-12-24T19:20:41.283Z,101174.19
2022-12-24T19:23:07.876Z,101173.56
2022-12-24T19:25:35.349Z,101171.75
2022-12-24T19:28:08.416Z,101178.19
2022-12-24T19:30:39.337Z,101177.28
2022-12-24T19:33:06.236Z,101182.75
2022-12-24T19:35:32.945Z,101178.44
2022-12-24T19:37:59.891Z,101177.44
2022-12-24T19:40:27.447Z,101184.56
2022-12-24T19:42:53.936Z,101189.09
2022-12-24T19:45:22.282Z,101188.03
2022-12-24T19:47:50.289Z,101196.13
2022-12-24T19:50:18.190Z,101173.78
2022-12-24T19:52:44.770Z,101193.34
2022-12-24T19:55:11.981Z,101190.16
2022-12-24T19:57:39.676Z,101182.97
2022-12-24T20:00:09.136Z,101180.31
2022-12-24T20:02:41.653Z,101183.84
2022-12-24T20:05:08.247Z,101178.09
2022-12-24T20:07:34.707Z,101180.75
2022-12-24T20:10:01.145Z,101185.78
2022-12-24T20:12:27.608Z,101184.69
2022-12-24T20:14:57.459Z,101185.47
2022-12-24T20:17:23.957Z,101181.78
2022-12-24T20:19:50.627Z,101190.78
2022-12-24T20:22:16.983Z,101200.44
2022-12-24T20:24:43.402Z,101201.22
2022-12-24T20:27:09.903Z,101203.81
2022-12-24T20:29:36.373Z,101213.41
2022-12-24T20:32:02.807Z,101199.97
2022-12-24T20:34:29.214Z,101200.78
2022-12-24T20:36:55.577Z,101197.19
2022-12-24T20:39:21.973Z,101204.28
2022-12-24T20:41:48.418Z,101207.91
2022-12-24T20:44:14.875Z,101205.47
2022-12-24T20:46:41.235Z,101196.47
2022-12-24T20:49:07.610Z,101214.94
2022-12-24T20:51:34.111Z,101218.25
2022-12-24T20:54:01.871Z,101220.16
2022-12-24T20:56:29.047Z,101221.84
2022-12-24T20:58:55.436Z,101227.03
2022-12-24T21:01:24.999Z,101219.75
2022-12-24T21:03:53.200Z,101221.63
2022-12-24T21:06:19.711Z,101230.31
2022-12-24T21:08:48.917Z,101220.78
2022-12-24T21:11:34.042Z,101223.34
2022-12-24T21:14:01.958Z,101236.59
2022-12-24T21:16:30.474Z,101229.31
2022-12-24T21:18:56.948Z,101233.72
2022-12-24T21:21:23.404Z,101228.22
2022-12-24T21:23:49.800Z,101227.31
2022-12-24T21:26:16.215Z,101221.81
2022-12-24T21:28:43.762Z,101220.06
2022-12-24T21:31:12.225Z,101215.69
2022-12-24T21:33:38.935Z,101219.22
2022-12-24T21:36:06.098Z,101212.34
2022-12-24T21:38:32.717Z,101215.94
2022-12-24T21:41:07.771Z,101207.03
2022-12-24T21:43:35.958Z,101200.97
2022-12-24T21:46:07.887Z,101202.78
2022-12-24T21:48:55.891Z,101198.31
2022-12-24T21:51:23.628Z,101207.09
2022-12-24T21:54:08.699Z,101202.44
2022-12-24T21:56:53.636Z,101193.44
2022-12-24T21:59:26.191Z,101196.09
2022-12-24T22:01:53.285Z,101193.59
2022-12-24T22:04:19.971Z,101183.81
2022-12-24T22:07:04.921Z,101176.72
2022-12-24T22:09:49.660Z,101189.13
2022-12-24T22:12:16.180Z,101183.13
2022-12-24T22:14:42.535Z,101185.56
2022-12-24T22:17:08.910Z,101174.72
2022-12-24T22:19:35.329Z,101169.03
2022-12-24T22:22:01.709Z,101165.09
2022-12-24T22:24:28.568Z,101155.00
2022-12-24T22:26:54.946Z,101146.72
2022-12-24T22:29:21.350Z,101144.09
2022-12-24T22:31:47.794Z,101145.66
2022-12-24T22:34:14.516Z,101136.91
2022-12-24T22:36:41.128Z,101146.00
2022-12-24T22:39:08.493Z,101144.97
2022-12-24T22:41:35.019Z,101137.78
2022-12-24T22:44:01.645Z,101136.03
2022-12-24T22:46:28.108Z,101132.44
2022-12-24T22:48:54.475Z,101132.34
2022-12-24T22:51:22.317Z,101138.41
2022-12-24T22:53:48.995Z,101135.41
2022-12-24T22:56:21.103Z,101132.13
2022-12-24T22:58:52.748Z,101136.44
2022-12-24T23:01:19.482Z,101142.72
2022-12-24T23:03:45.973Z,101142.63
2022-12-24T23:06:12.383Z,101150.06
2022-12-24T23:08:38.738Z,101143.97
2022-12-24T23:11:11.632Z,101162.03
2022-12-24T23:13:58.608Z,101149.50
2022-12-24T23:16:27.081Z,101151.78
2022-12-24T23:18:53.832Z,101153.19
2022-12-24T23:21:20.364Z,101158.50
2022-12-24T23:23:46.897Z,101146.91
2022-12-24T23:26:16.967Z,101150.66
2022-12-24T23:28:44.196Z,101150.25
2022-12-24T23:31:11.641Z,101149.31
2022-12-24T23:33:38.457Z,101154.94
2022-12-24T23:36:05.199Z,101160.19
2022-12-24T23:38:32.142Z,101150.63
2022-12-24T23:41:00.471Z,101159.38
2022-12-24T23:43:27.251Z,101169.94
2022-12-24T23:45:54.282Z,101156.94
2022-12-24T23:48:21.485Z,101162.13
2022-12-24T23:50:49.264Z,101164.72
2022-12-24T23:53:17.044Z,101166.38
2022-12-24T23:55:43.486Z,101162.97
2022-12-24T23:58:13.681Z,101174.13
